sensor_id;sensor_type;location;lat;lon;timestamp;P1;durP1;ratioP1;P2;durP2;ratioP2
21181;SDS011;10749;46.296;7.524;2022-10-16T00:00:16;2.53;;;1.40;;
21181;SDS011;10749;46.296;7.524;2022-10-16T00:02:42;3.20;;;1.30;;
21181;SDS011;10749;46.296;7.524;2022-10-16T00:05:07;3.57;;;1.20;;
21181;SDS011;10749;46.296;7.524;2022-10-16T00:07:32;3.10;;;1.40;;
21181;SDS011;10749;46.296;7.524;2022-10-16T00:09:57;3.90;;;1.30;;
21181;SDS011;10749;46.296;7.524;2022-10-16T00:12:23;2.37;;;1.10;;
21181;SDS011;10749;46.296;7.524;2022-10-16T00:14:48;1.70;;;1.10;;
21181;SDS011;10749;46.296;7.524;2022-10-16T00:17:13;5.07;;;1.20;;
21181;SDS011;10749;46.296;7.524;2022-10-16T00:19:39;4.40;;;1.20;;
21181;SDS011;10749;46.296;7.524;2022-10-16T00:22:04;3.20;;;1.30;;
21181;SDS011;10749;46.296;7.524;2022-10-16T00:24:29;2.47;;;1.20;;
21181;SDS011;10749;46.296;7.524;2022-10-16T00:26:54;3.13;;;1.30;;
21181;SDS011;10749;46.296;7.524;2022-10-16T00:29:20;2.67;;;0.90;;
21181;SDS011;10749;46.296;7.524;2022-10-16T00:31:45;1.57;;;0.80;;
21181;SDS011;10749;46.296;7.524;2022-10-16T00:34:10;2.43;;;0.60;;
21181;SDS011;10749;46.296;7.524;2022-10-16T00:36:36;2.50;;;0.93;;
21181;SDS011;10749;46.296;7.524;2022-10-16T00:39:01;2.43;;;0.60;;
21181;SDS011;10749;46.296;7.524;2022-10-16T00:41:27;3.13;;;0.70;;
21181;SDS011;10749;46.296;7.524;2022-10-16T00:43:57;1.63;;;0.87;;
21181;SDS011;10749;46.296;7.524;2022-10-16T00:46:57;0.77;;;0.53;;
21181;SDS011;10749;46.296;7.524;2022-10-16T00:49:16;0.90;;;0.50;;
21181;SDS011;10749;46.296;7.524;2022-10-16T00:51:46;2.13;;;0.70;;
21181;SDS011;10749;46.296;7.524;2022-10-16T00:54:26;1.43;;;0.70;;
21181;SDS011;10749;46.296;7.524;2022-10-16T00:56:54;0.87;;;0.60;;
21181;SDS011;10749;46.296;7.524;2022-10-16T00:59:25;3.80;;;1.00;;
21181;SDS011;10749;46.296;7.524;2022-10-16T01:01:53;1.47;;;1.00;;
21181;SDS011;10749;46.296;7.524;2022-10-16T01:04:19;2.23;;;1.10;;
21181;SDS011;10749;46.296;7.524;2022-10-16T01:06:47;4.87;;;1.03;;
21181;SDS011;10749;46.296;7.524;2022-10-16T01:09:34;1.63;;;0.80;;
21181;SDS011;10749;46.296;7.524;2022-10-16T01:12:11;5.10;;;0.90;;
21181;SDS011;10749;46.296;7.524;2022-10-16T01:17:21;1.90;;;0.70;;
21181;SDS011;10749;46.296;7.524;2022-10-16T01:28:14;1.43;;;0.70;;
21181;SDS011;10749;46.296;7.524;2022-10-16T01:30:43;1.30;;;0.60;;
21181;SDS011;10749;46.296;7.524;2022-10-16T01:33:13;5.10;;;0.93;;
21181;SDS011;10749;46.296;7.524;2022-10-16T01:35:52;1.73;;;0.80;;
21181;SDS011;10749;46.296;7.524;2022-10-16T01:38:29;1.77;;;0.70;;
21181;SDS011;10749;46.296;7.524;2022-10-16T01:44:07;0.60;;;0.40;;
21181;SDS011;10749;46.296;7.524;2022-10-16T01:46:36;0.90;;;0.60;;
21181;SDS011;10749;46.296;7.524;2022-10-16T01:49:04;4.60;;;0.97;;
21181;SDS011;10749;46.296;7.524;2022-10-16T01:51:31;1.97;;;0.67;;
21181;SDS011;10749;46.296;7.524;2022-10-16T01:53:59;1.63;;;0.63;;
21181;SDS011;10749;46.296;7.524;2022-10-16T01:56:26;1.30;;;0.50;;
21181;SDS011;10749;46.296;7.524;2022-10-16T01:58:55;2.47;;;0.60;;
21181;SDS011;10749;46.296;7.524;2022-10-16T02:01:24;1.57;;;0.50;;
21181;SDS011;10749;46.296;7.524;2022-10-16T02:03:53;1.70;;;0.60;;
21181;SDS011;10749;46.296;7.524;2022-10-16T02:06:21;3.20;;;0.50;;
21181;SDS011;10749;46.296;7.524;2022-10-16T02:08:47;3.53;;;0.77;;
21181;SDS011;10749;46.296;7.524;2022-10-16T02:11:13;0.73;;;0.43;;
21181;SDS011;10749;46.296;7.524;2022-10-16T02:13:55;1.70;;;0.53;;
21181;SDS011;10749;46.296;7.524;2022-10-16T02:16:34;2.77;;;0.77;;
21181;SDS011;10749;46.296;7.524;2022-10-16T02:19:02;1.63;;;0.90;;
21181;SDS011;10749;46.296;7.524;2022-10-16T02:21:29;2.30;;;0.87;;
21181;SDS011;10749;46.296;7.524;2022-10-16T02:24:19;2.10;;;0.80;;
21181;SDS011;10749;46.296;7.524;2022-10-16T02:27:12;0.97;;;0.70;;
21181;SDS011;10749;46.296;7.524;2022-10-16T02:29:49;1.67;;;0.67;;
21181;SDS011;10749;46.296;7.524;2022-10-16T02:32:23;2.10;;;0.80;;
21181;SDS011;10749;46.296;7.524;2022-10-16T02:34:54;2.27;;;1.00;;
21181;SDS011;10749;46.296;7.524;2022-10-16T02:37:20;3.60;;;0.93;;
21181;SDS011;10749;46.296;7.524;2022-10-16T02:39:46;1.53;;;0.70;;
21181;SDS011;10749;46.296;7.524;2022-10-16T02:42:12;1.97;;;0.80;;
21181;SDS011;10749;46.296;7.524;2022-10-16T02:44:38;1.00;;;0.60;;
21181;SDS011;10749;46.296;7.524;2022-10-16T02:47:04;2.70;;;0.90;;
21181;SDS011;10749;46.296;7.524;2022-10-16T02:49:29;1.40;;;0.80;;
21181;SDS011;10749;46.296;7.524;2022-10-16T02:51:54;2.10;;;0.70;;
21181;SDS011;10749;46.296;7.524;2022-10-16T02:54:20;1.17;;;0.50;;
21181;SDS011;10749;46.296;7.524;2022-10-16T02:56:45;2.27;;;0.60;;
21181;SDS011;10749;46.296;7.524;2022-10-16T02:59:10;0.97;;;0.43;;
21181;SDS011;10749;46.296;7.524;2022-10-16T03:01:36;4.03;;;0.70;;
21181;SDS011;10749;46.296;7.524;2022-10-16T03:04:01;0.90;;;0.47;;
21181;SDS011;10749;46.296;7.524;2022-10-16T03:06:26;1.43;;;0.63;;
21181;SDS011;10749;46.296;7.524;2022-10-16T03:08:52;1.73;;;0.50;;
21181;SDS011;10749;46.296;7.524;2022-10-16T03:11:17;2.13;;;0.80;;
21181;SDS011;10749;46.296;7.524;2022-10-16T03:13:42;2.40;;;0.60;;
21181;SDS011;10749;46.296;7.524;2022-10-16T03:16:08;1.53;;;0.63;;
21181;SDS011;10749;46.296;7.524;2022-10-16T03:18:33;2.07;;;0.60;;
21181;SDS011;10749;46.296;7.524;2022-10-16T03:20:58;0.97;;;0.40;;
21181;SDS011;10749;46.296;7.524;2022-10-16T03:23:23;0.60;;;0.50;;
21181;SDS011;10749;46.296;7.524;2022-10-16T03:25:49;0.80;;;0.50;;
21181;SDS011;10749;46.296;7.524;2022-10-16T03:28:14;2.23;;;0.67;;
21181;SDS011;10749;46.296;7.524;2022-10-16T03:30:39;1.10;;;0.40;;
21181;SDS011;10749;46.296;7.524;2022-10-16T03:33:05;2.93;;;0.77;;
21181;SDS011;10749;46.296;7.524;2022-10-16T03:35:31;2.23;;;0.70;;
21181;SDS011;10749;46.296;7.524;2022-10-16T03:37:57;3.27;;;0.70;;
21181;SDS011;10749;46.296;7.524;2022-10-16T03:40:23;1.87;;;1.00;;
21181;SDS011;10749;46.296;7.524;2022-10-16T03:42:48;1.00;;;0.60;;
21181;SDS011;10749;46.296;7.524;2022-10-16T03:45:13;1.00;;;0.60;;
21181;SDS011;10749;46.296;7.524;2022-10-16T03:47:39;3.70;;;0.60;;
21181;SDS011;10749;46.296;7.524;2022-10-16T03:50:04;1.93;;;0.60;;
21181;SDS011;10749;46.296;7.524;2022-10-16T03:52:30;1.60;;;0.67;;
21181;SDS011;10749;46.296;7.524;2022-10-16T03:54:57;3.37;;;0.60;;
21181;SDS011;10749;46.296;7.524;2022-10-16T03:57:22;1.70;;;0.60;;
21181;SDS011;10749;46.296;7.524;2022-10-16T03:59:47;1.50;;;0.70;;
21181;SDS011;10749;46.296;7.524;2022-10-16T04:02:13;1.03;;;0.80;;
21181;SDS011;10749;46.296;7.524;2022-10-16T04:04:38;1.50;;;0.67;;
21181;SDS011;10749;46.296;7.524;2022-10-16T04:07:03;1.67;;;0.77;;
21181;SDS011;10749;46.296;7.524;2022-10-16T04:09:29;1.67;;;0.70;;
21181;SDS011;10749;46.296;7.524;2022-10-16T04:11:54;3.97;;;0.70;;
21181;SDS011;10749;46.296;7.524;2022-10-16T04:14:20;1.93;;;0.53;;
21181;SDS011;10749;46.296;7.524;2022-10-16T04:16:45;2.50;;;0.70;;
21181;SDS011;10749;46.296;7.524;2022-10-16T04:19:10;0.60;;;0.47;;
21181;SDS011;10749;46.296;7.524;2022-10-16T04:21:36;1.90;;;0.83;;
21181;SDS011;10749;46.296;7.524;2022-10-16T04:24:01;2.47;;;0.60;;
21181;SDS011;10749;46.296;7.524;2022-10-16T04:26:27;1.70;;;0.90;;
21181;SDS011;10749;46.296;7.524;2022-10-16T04:28:53;5.47;;;1.00;;
21181;SDS011;10749;46.296;7.524;2022-10-16T04:31:19;2.50;;;0.70;;
21181;SDS011;10749;46.296;7.524;2022-10-16T04:33:45;3.07;;;0.70;;
21181;SDS011;10749;46.296;7.524;2022-10-16T04:36:10;2.37;;;0.57;;
21181;SDS011;10749;46.296;7.524;2022-10-16T04:38:36;2.90;;;0.70;;
21181;SDS011;10749;46.296;7.524;2022-10-16T04:41:02;2.47;;;0.70;;
21181;SDS011;10749;46.296;7.524;2022-10-16T04:43:28;1.90;;;0.63;;
21181;SDS011;10749;46.296;7.524;2022-10-16T04:45:53;1.73;;;0.90;;
21181;SDS011;10749;46.296;7.524;2022-10-16T04:48:19;1.20;;;0.80;;
21181;SDS011;10749;46.296;7.524;2022-10-16T04:50:45;2.53;;;0.77;;
21181;SDS011;10749;46.296;7.524;2022-10-16T04:53:10;0.70;;;0.60;;
21181;SDS011;10749;46.296;7.524;2022-10-16T04:55:36;0.80;;;0.60;;
21181;SDS011;10749;46.296;7.524;2022-10-16T04:58:02;1.10;;;0.50;;
21181;SDS011;10749;46.296;7.524;2022-10-16T05:00:27;1.13;;;0.33;;
21181;SDS011;10749;46.296;7.524;2022-10-16T05:02:53;0.83;;;0.50;;
21181;SDS011;10749;46.296;7.524;2022-10-16T05:05:18;2.93;;;0.90;;
21181;SDS011;10749;46.296;7.524;2022-10-16T05:07:47;3.87;;;0.90;;
21181;SDS011;10749;46.296;7.524;2022-10-16T05:10:12;2.40;;;0.80;;
21181;SDS011;10749;46.296;7.524;2022-10-16T05:12:37;3.10;;;0.70;;
21181;SDS011;10749;46.296;7.524;2022-10-16T05:15:03;4.60;;;3.30;;
21181;SDS011;10749;46.296;7.524;2022-10-16T05:17:29;3.47;;;1.27;;
21181;SDS011;10749;46.296;7.524;2022-10-16T05:19:54;1.33;;;0.70;;
21181;SDS011;10749;46.296;7.524;2022-10-16T05:22:19;2.37;;;0.70;;
21181;SDS011;10749;46.296;7.524;2022-10-16T05:24:45;1.83;;;0.50;;
21181;SDS011;10749;46.296;7.524;2022-10-16T05:27:10;0.90;;;0.60;;
21181;SDS011;10749;46.296;7.524;2022-10-16T05:29:36;2.67;;;0.70;;
21181;SDS011;10749;46.296;7.524;2022-10-16T05:32:01;2.27;;;0.70;;
21181;SDS011;10749;46.296;7.524;2022-10-16T05:34:27;0.80;;;0.53;;
21181;SDS011;10749;46.296;7.524;2022-10-16T05:36:52;1.63;;;0.70;;
21181;SDS011;10749;46.296;7.524;2022-10-16T05:39:17;1.53;;;0.60;;
21181;SDS011;10749;46.296;7.524;2022-10-16T05:41:43;1.47;;;0.70;;
21181;SDS011;10749;46.296;7.524;2022-10-16T05:44:08;3.70;;;0.97;;
21181;SDS011;10749;46.296;7.524;2022-10-16T05:46:34;1.53;;;0.90;;
21181;SDS011;10749;46.296;7.524;2022-10-16T05:48:59;2.27;;;0.90;;
21181;SDS011;10749;46.296;7.524;2022-10-16T05:51:25;4.27;;;1.10;;
21181;SDS011;10749;46.296;7.524;2022-10-16T05:53:50;1.17;;;0.70;;
21181;SDS011;10749;46.296;7.524;2022-10-16T05:56:17;2.00;;;0.90;;
21181;SDS011;10749;46.296;7.524;2022-10-16T05:58:42;2.57;;;0.90;;
21181;SDS011;10749;46.296;7.524;2022-10-16T06:01:10;2.37;;;1.73;;
21181;SDS011;10749;46.296;7.524;2022-10-16T06:03:40;2.43;;;1.43;;
21181;SDS011;10749;46.296;7.524;2022-10-16T06:06:09;3.60;;;1.80;;
21181;SDS011;10749;46.296;7.524;2022-10-16T06:08:39;2.73;;;1.87;;
21181;SDS011;10749;46.296;7.524;2022-10-16T06:11:07;2.83;;;1.70;;
21181;SDS011;10749;46.296;7.524;2022-10-16T06:13:34;4.50;;;1.60;;
21181;SDS011;10749;46.296;7.524;2022-10-16T06:15:59;2.90;;;1.80;;
21181;SDS011;10749;46.296;7.524;2022-10-16T06:18:26;2.03;;;1.43;;
21181;SDS011;10749;46.296;7.524;2022-10-16T06:20:52;2.87;;;1.20;;
21181;SDS011;10749;46.296;7.524;2022-10-16T06:23:18;5.33;;;1.20;;
21181;SDS011;10749;46.296;7.524;2022-10-16T06:25:43;2.03;;;1.17;;
21181;SDS011;10749;46.296;7.524;2022-10-16T06:28:09;3.07;;;1.57;;
21181;SDS011;10749;46.296;7.524;2022-10-16T06:30:34;3.03;;;1.10;;
21181;SDS011;10749;46.296;7.524;2022-10-16T06:32:59;2.60;;;1.20;;
21181;SDS011;10749;46.296;7.524;2022-10-16T06:35:25;2.23;;;1.30;;
21181;SDS011;10749;46.296;7.524;2022-10-16T06:37:52;1.90;;;1.20;;
21181;SDS011;10749;46.296;7.524;2022-10-16T06:40:18;3.53;;;1.23;;
21181;SDS011;10749;46.296;7.524;2022-10-16T06:42:43;2.23;;;1.30;;
21181;SDS011;10749;46.296;7.524;2022-10-16T06:45:08;3.17;;;1.10;;
21181;SDS011;10749;46.296;7.524;2022-10-16T06:47:34;2.67;;;1.10;;
21181;SDS011;10749;46.296;7.524;2022-10-16T06:49:59;2.67;;;1.00;;
21181;SDS011;10749;46.296;7.524;2022-10-16T06:52:27;3.30;;;1.03;;
21181;SDS011;10749;46.296;7.524;2022-10-16T06:54:53;3.03;;;1.20;;
21181;SDS011;10749;46.296;7.524;2022-10-16T06:57:18;2.40;;;1.00;;
21181;SDS011;10749;46.296;7.524;2022-10-16T06:59:43;1.83;;;0.90;;
21181;SDS011;10749;46.296;7.524;2022-10-16T07:02:09;1.90;;;0.77;;
21181;SDS011;10749;46.296;7.524;2022-10-16T07:04:35;3.03;;;1.20;;
21181;SDS011;10749;46.296;7.524;2022-10-16T07:07:01;4.60;;;3.27;;
21181;SDS011;10749;46.296;7.524;2022-10-16T07:09:27;4.03;;;3.63;;
21181;SDS011;10749;46.296;7.524;2022-10-16T07:11:52;2.53;;;2.07;;
21181;SDS011;10749;46.296;7.524;2022-10-16T07:14:18;2.00;;;1.20;;
21181;SDS011;10749;46.296;7.524;2022-10-16T07:16:45;1.80;;;1.10;;
21181;SDS011;10749;46.296;7.524;2022-10-16T07:19:11;6.00;;;1.17;;
21181;SDS011;10749;46.296;7.524;2022-10-16T07:21:38;3.93;;;0.90;;
21181;SDS011;10749;46.296;7.524;2022-10-16T07:24:05;0.93;;;0.80;;
21181;SDS011;10749;46.296;7.524;2022-10-16T07:26:33;0.80;;;0.63;;
21181;SDS011;10749;46.296;7.524;2022-10-16T07:29:00;0.90;;;0.80;;
21181;SDS011;10749;46.296;7.524;2022-10-16T07:31:26;3.53;;;0.90;;
21181;SDS011;10749;46.296;7.524;2022-10-16T07:33:52;2.50;;;1.20;;
21181;SDS011;10749;46.296;7.524;2022-10-16T07:36:18;2.00;;;1.37;;
21181;SDS011;10749;46.296;7.524;2022-10-16T07:38:44;3.53;;;1.07;;
21181;SDS011;10749;46.296;7.524;2022-10-16T07:41:14;2.20;;;1.40;;
21181;SDS011;10749;46.296;7.524;2022-10-16T07:43:45;1.77;;;1.20;;
21181;SDS011;10749;46.296;7.524;2022-10-16T07:46:11;3.80;;;2.73;;
21181;SDS011;10749;46.296;7.524;2022-10-16T07:48:37;3.07;;;2.17;;
21181;SDS011;10749;46.296;7.524;2022-10-16T07:51:03;2.60;;;2.10;;
21181;SDS011;10749;46.296;7.524;2022-10-16T07:53:31;1.77;;;1.57;;
21181;SDS011;10749;46.296;7.524;2022-10-16T07:55:58;3.10;;;1.40;;
21181;SDS011;10749;46.296;7.524;2022-10-16T07:58:28;3.07;;;1.47;;
21181;SDS011;10749;46.296;7.524;2022-10-16T08:00:54;2.77;;;1.30;;
21181;SDS011;10749;46.296;7.524;2022-10-16T08:03:19;2.90;;;1.60;;
21181;SDS011;10749;46.296;7.524;2022-10-16T08:05:45;2.47;;;1.40;;
21181;SDS011;10749;46.296;7.524;2022-10-16T08:08:12;2.30;;;1.37;;
21181;SDS011;10749;46.296;7.524;2022-10-16T08:10:38;3.03;;;1.60;;
21181;SDS011;10749;46.296;7.524;2022-10-16T08:13:04;3.97;;;1.50;;
21181;SDS011;10749;46.296;7.524;2022-10-16T08:15:29;3.03;;;1.90;;
21181;SDS011;10749;46.296;7.524;2022-10-16T08:17:58;4.73;;;1.90;;
21181;SDS011;10749;46.296;7.524;2022-10-16T08:20:25;3.43;;;1.47;;
21181;SDS011;10749;46.296;7.524;2022-10-16T08:22:52;5.57;;;1.70;;
21181;SDS011;10749;46.296;7.524;2022-10-16T08:25:18;3.10;;;1.27;;
21181;SDS011;10749;46.296;7.524;2022-10-16T08:27:44;2.60;;;1.53;;
21181;SDS011;10749;46.296;7.524;2022-10-16T08:30:09;3.40;;;1.60;;
21181;SDS011;10749;46.296;7.524;2022-10-16T08:32:35;4.53;;;1.60;;
21181;SDS011;10749;46.296;7.524;2022-10-16T08:35:00;4.30;;;1.60;;
21181;SDS011;10749;46.296;7.524;2022-10-16T08:37:29;1.40;;;0.80;;
21181;SDS011;10749;46.296;7.524;2022-10-16T08:39:55;2.03;;;0.70;;
21181;SDS011;10749;46.296;7.524;2022-10-16T08:47:48;2.20;;;0.80;;
21181;SDS011;10749;46.296;7.524;2022-10-16T08:50:23;1.77;;;0.93;;
21181;SDS011;10749;46.296;7.524;2022-10-16T08:52:52;2.60;;;0.87;;
21181;SDS011;10749;46.296;7.524;2022-10-16T08:57:59;1.47;;;0.90;;
21181;SDS011;10749;46.296;7.524;2022-10-16T09:00:27;0.90;;;0.60;;
21181;SDS011;10749;46.296;7.524;2022-10-16T09:03:03;2.53;;;0.77;;
21181;SDS011;10749;46.296;7.524;2022-10-16T09:05:52;1.17;;;0.70;;
21181;SDS011;10749;46.296;7.524;2022-10-16T09:11:05;1.73;;;0.80;;
21181;SDS011;10749;46.296;7.524;2022-10-16T09:13:38;3.63;;;0.97;;
21181;SDS011;10749;46.296;7.524;2022-10-16T09:16:38;2.03;;;0.67;;
21181;SDS011;10749;46.296;7.524;2022-10-16T09:21:46;0.95;;;0.65;;
21181;SDS011;10749;46.296;7.524;2022-10-16T09:24:16;2.17;;;0.90;;
21181;SDS011;10749;46.296;7.524;2022-10-16T09:26:43;1.27;;;0.90;;
21181;SDS011;10749;46.296;7.524;2022-10-16T09:29:13;0.90;;;0.75;;
21181;SDS011;10749;46.296;7.524;2022-10-16T09:31:40;1.50;;;1.10;;
21181;SDS011;10749;46.296;7.524;2022-10-16T09:34:06;3.42;;;1.00;;
21181;SDS011;10749;46.296;7.524;2022-10-16T09:36:52;3.45;;;1.77;;
21181;SDS011;10749;46.296;7.524;2022-10-16T09:39:17;3.60;;;1.70;;
21181;SDS011;10749;46.296;7.524;2022-10-16T09:41:44;2.03;;;1.10;;
21181;SDS011;10749;46.296;7.524;2022-10-16T09:44:29;2.03;;;1.30;;
21181;SDS011;10749;46.296;7.524;2022-10-16T09:47:03;1.90;;;1.38;;
21181;SDS011;10749;46.296;7.524;2022-10-16T09:49:29;3.15;;;1.52;;
21181;SDS011;10749;46.296;7.524;2022-10-16T09:54:31;1.10;;;0.70;;
21181;SDS011;10749;46.296;7.524;2022-10-16T09:57:06;1.98;;;0.80;;
21181;SDS011;10749;46.296;7.524;2022-10-16T09:59:32;2.40;;;0.85;;
21181;SDS011;10749;46.296;7.524;2022-10-16T10:02:01;0.93;;;0.70;;
21181;SDS011;10749;46.296;7.524;2022-10-16T10:04:37;1.73;;;0.80;;
21181;SDS011;10749;46.296;7.524;2022-10-16T10:07:04;1.95;;;1.00;;
21181;SDS011;10749;46.296;7.524;2022-10-16T10:09:47;1.90;;;0.95;;
21181;SDS011;10749;46.296;7.524;2022-10-16T10:14:50;2.00;;;1.00;;
21181;SDS011;10749;46.296;7.524;2022-10-16T10:17:19;3.63;;;2.20;;
21181;SDS011;10749;46.296;7.524;2022-10-16T10:22:29;2.90;;;2.22;;
21181;SDS011;10749;46.296;7.524;2022-10-16T10:30:14;1.10;;;0.90;;
21181;SDS011;10749;46.296;7.524;2022-10-16T10:41:14;1.60;;;0.82;;
21181;SDS011;10749;46.296;7.524;2022-10-16T10:47:07;1.15;;;0.70;;
21181;SDS011;10749;46.296;7.524;2022-10-16T10:49:51;1.00;;;0.70;;
21181;SDS011;10749;46.296;7.524;2022-10-16T10:53:14;0.57;;;0.40;;
21181;SDS011;10749;46.296;7.524;2022-10-16T11:06:16;1.98;;;0.75;;
21181;SDS011;10749;46.296;7.524;2022-10-16T11:08:53;2.70;;;0.77;;
21181;SDS011;10749;46.296;7.524;2022-10-16T11:11:25;1.00;;;0.82;;
21181;SDS011;10749;46.296;7.524;2022-10-16T11:16:24;0.70;;;0.52;;
21181;SDS011;10749;46.296;7.524;2022-10-16T11:21:27;1.52;;;0.95;;
21181;SDS011;10749;46.296;7.524;2022-10-16T11:24:14;1.55;;;0.70;;
21181;SDS011;10749;46.296;7.524;2022-10-16T11:26:42;1.98;;;0.70;;
21181;SDS011;10749;46.296;7.524;2022-10-16T11:29:19;1.40;;;0.80;;
21181;SDS011;10749;46.296;7.524;2022-10-16T11:31:51;1.10;;;0.80;;
21181;SDS011;10749;46.296;7.524;2022-10-16T11:39:39;0.90;;;0.63;;
21181;SDS011;10749;46.296;7.524;2022-10-16T11:48:22;0.95;;;0.85;;
21181;SDS011;10749;46.296;7.524;2022-10-16T11:50:53;3.33;;;0.90;;
21181;SDS011;10749;46.296;7.524;2022-10-16T11:56:16;1.05;;;0.93;;
21181;SDS011;10749;46.296;7.524;2022-10-16T12:01:42;1.40;;;0.93;;
21181;SDS011;10749;46.296;7.524;2022-10-16T12:04:16;1.48;;;1.30;;
21181;SDS011;10749;46.296;7.524;2022-10-16T12:07:18;1.10;;;0.93;;
21181;SDS011;10749;46.296;7.524;2022-10-16T12:09:48;1.00;;;0.88;;
21181;SDS011;10749;46.296;7.524;2022-10-16T12:12:27;1.40;;;1.20;;
21181;SDS011;10749;46.296;7.524;2022-10-16T12:15:15;1.10;;;0.80;;
21181;SDS011;10749;46.296;7.524;2022-10-16T12:17:42;1.20;;;1.00;;
21181;SDS011;10749;46.296;7.524;2022-10-16T12:22:36;1.35;;;1.13;;
21181;SDS011;10749;46.296;7.524;2022-10-16T12:25:05;3.50;;;1.45;;
21181;SDS011;10749;46.296;7.524;2022-10-16T12:27:43;1.42;;;1.08;;
21181;SDS011;10749;46.296;7.524;2022-10-16T12:30:15;1.10;;;1.00;;
21181;SDS011;10749;46.296;7.524;2022-10-16T12:32:52;1.40;;;0.80;;
21181;SDS011;10749;46.296;7.524;2022-10-16T12:35:21;1.33;;;0.80;;
21181;SDS011;10749;46.296;7.524;2022-10-16T12:37:48;1.10;;;1.00;;
21181;SDS011;10749;46.296;7.524;2022-10-16T12:42:46;1.23;;;0.90;;
21181;SDS011;10749;46.296;7.524;2022-10-16T12:47:52;1.02;;;0.85;;
21181;SDS011;10749;46.296;7.524;2022-10-16T12:50:27;1.05;;;0.88;;
21181;SDS011;10749;46.296;7.524;2022-10-16T12:52:58;1.52;;;1.20;;
21181;SDS011;10749;46.296;7.524;2022-10-16T12:55:24;0.93;;;0.75;;
21181;SDS011;10749;46.296;7.524;2022-10-16T13:09:32;1.00;;;0.90;;
21181;SDS011;10749;46.296;7.524;2022-10-16T13:12:16;1.02;;;0.93;;
21181;SDS011;10749;46.296;7.524;2022-10-16T13:23:36;0.82;;;0.82;;
21181;SDS011;10749;46.296;7.524;2022-10-16T13:28:43;2.40;;;1.02;;
21181;SDS011;10749;46.296;7.524;2022-10-16T13:31:21;1.23;;;1.00;;
21181;SDS011;10749;46.296;7.524;2022-10-16T13:33:52;1.23;;;0.88;;
21181;SDS011;10749;46.296;7.524;2022-10-16T13:38:46;1.00;;;0.82;;
21181;SDS011;10749;46.296;7.524;2022-10-16T13:41:17;1.17;;;1.02;;
21181;SDS011;10749;46.296;7.524;2022-10-16T13:43:47;1.25;;;0.85;;
21181;SDS011;10749;46.296;7.524;2022-10-16T13:46:19;2.47;;;0.95;;
21181;SDS011;10749;46.296;7.524;2022-10-16T13:48:59;2.08;;;1.00;;
21181;SDS011;10749;46.296;7.524;2022-10-16T13:51:30;2.30;;;1.08;;
21181;SDS011;10749;46.296;7.524;2022-10-16T13:53:56;1.67;;;1.00;;
21181;SDS011;10749;46.296;7.524;2022-10-16T13:56:24;1.23;;;1.13;;
21181;SDS011;10749;46.296;7.524;2022-10-16T13:58:59;1.35;;;1.08;;
21181;SDS011;10749;46.296;7.524;2022-10-16T14:01:32;1.00;;;0.90;;
21181;SDS011;10749;46.296;7.524;2022-10-16T14:04:09;1.20;;;0.95;;
21181;SDS011;10749;46.296;7.524;2022-10-16T14:06:40;1.50;;;1.00;;
21181;SDS011;10749;46.296;7.524;2022-10-16T14:11:57;2.00;;;1.00;;
21181;SDS011;10749;46.296;7.524;2022-10-16T14:14:23;1.20;;;1.08;;
21181;SDS011;10749;46.296;7.524;2022-10-16T14:16:51;1.23;;;0.90;;
21181;SDS011;10749;46.296;7.524;2022-10-16T14:21:50;1.48;;;0.80;;
21181;SDS011;10749;46.296;7.524;2022-10-16T14:24:35;0.88;;;0.80;;
21181;SDS011;10749;46.296;7.524;2022-10-16T14:27:01;1.50;;;0.80;;
21181;SDS011;10749;46.296;7.524;2022-10-16T14:29:28;0.80;;;0.80;;
21181;SDS011;10749;46.296;7.524;2022-10-16T14:32:00;2.80;;;0.95;;
21181;SDS011;10749;46.296;7.524;2022-10-16T14:34:34;1.05;;;0.82;;
21181;SDS011;10749;46.296;7.524;2022-10-16T14:37:08;0.95;;;0.70;;
21181;SDS011;10749;46.296;7.524;2022-10-16T14:39:48;1.60;;;0.80;;
21181;SDS011;10749;46.296;7.524;2022-10-16T14:42:16;1.10;;;0.60;;
21181;SDS011;10749;46.296;7.524;2022-10-16T14:44:44;0.98;;;0.60;;
21181;SDS011;10749;46.296;7.524;2022-10-16T14:47:13;1.08;;;0.80;;
21181;SDS011;10749;46.296;7.524;2022-10-16T14:49:41;2.15;;;0.90;;
21181;SDS011;10749;46.296;7.524;2022-10-16T14:52:10;1.52;;;0.68;;
21181;SDS011;10749;46.296;7.524;2022-10-16T14:54:36;0.80;;;0.60;;
21181;SDS011;10749;46.296;7.524;2022-10-16T14:57:02;1.20;;;0.65;;
21181;SDS011;10749;46.296;7.524;2022-10-16T14:59:28;0.70;;;0.55;;
21181;SDS011;10749;46.296;7.524;2022-10-16T15:01:57;0.60;;;0.60;;
21181;SDS011;10749;46.296;7.524;2022-10-16T15:04:22;4.35;;;1.10;;
21181;SDS011;10749;46.296;7.524;2022-10-16T15:06:47;2.00;;;0.98;;
21181;SDS011;10749;46.296;7.524;2022-10-16T15:09:13;2.47;;;0.88;;
21181;SDS011;10749;46.296;7.524;2022-10-16T15:11:38;1.65;;;0.95;;
21181;SDS011;10749;46.296;7.524;2022-10-16T15:14:04;2.03;;;1.40;;
21181;SDS011;10749;46.296;7.524;2022-10-16T15:16:30;3.40;;;1.00;;
21181;SDS011;10749;46.296;7.524;2022-10-16T15:18:57;1.70;;;1.33;;
21181;SDS011;10749;46.296;7.524;2022-10-16T15:21:30;1.88;;;1.20;;
21181;SDS011;10749;46.296;7.524;2022-10-16T15:23:57;1.10;;;1.00;;
21181;SDS011;10749;46.296;7.524;2022-10-16T15:26:24;2.00;;;1.52;;
21181;SDS011;10749;46.296;7.524;2022-10-16T15:28:53;2.53;;;1.50;;
21181;SDS011;10749;46.296;7.524;2022-10-16T15:31:19;1.35;;;1.10;;
21181;SDS011;10749;46.296;7.524;2022-10-16T15:33:44;1.40;;;1.10;;
21181;SDS011;10749;46.296;7.524;2022-10-16T15:36:16;2.40;;;1.45;;
21181;SDS011;10749;46.296;7.524;2022-10-16T15:38:41;3.33;;;1.58;;
21181;SDS011;10749;46.296;7.524;2022-10-16T15:41:07;2.63;;;1.33;;
21181;SDS011;10749;46.296;7.524;2022-10-16T15:43:32;1.92;;;1.10;;
21181;SDS011;10749;46.296;7.524;2022-10-16T15:46:04;2.42;;;1.83;;
21181;SDS011;10749;46.296;7.524;2022-10-16T15:48:32;1.98;;;1.20;;
21181;SDS011;10749;46.296;7.524;2022-10-16T15:50:58;2.58;;;1.30;;
21181;SDS011;10749;46.296;7.524;2022-10-16T15:53:24;2.75;;;1.27;;
21181;SDS011;10749;46.296;7.524;2022-10-16T15:55:50;3.22;;;1.65;;
21181;SDS011;10749;46.296;7.524;2022-10-16T15:58:15;3.72;;;1.27;;
21181;SDS011;10749;46.296;7.524;2022-10-16T16:00:41;1.75;;;1.08;;
21181;SDS011;10749;46.296;7.524;2022-10-16T16:03:06;2.83;;;1.50;;
21181;SDS011;10749;46.296;7.524;2022-10-16T16:05:31;1.58;;;1.27;;
21181;SDS011;10749;46.296;7.524;2022-10-16T16:07:58;1.40;;;0.98;;
21181;SDS011;10749;46.296;7.524;2022-10-16T16:10:23;2.83;;;1.25;;
21181;SDS011;10749;46.296;7.524;2022-10-16T16:12:49;1.73;;;1.38;;
21181;SDS011;10749;46.296;7.524;2022-10-16T16:15:17;1.67;;;1.08;;
21181;SDS011;10749;46.296;7.524;2022-10-16T16:17:44;1.90;;;1.23;;
21181;SDS011;10749;46.296;7.524;2022-10-16T16:20:10;1.50;;;1.23;;
21181;SDS011;10749;46.296;7.524;2022-10-16T16:22:35;1.58;;;1.10;;
21181;SDS011;10749;46.296;7.524;2022-10-16T16:25:01;1.98;;;1.10;;
21181;SDS011;10749;46.296;7.524;2022-10-16T16:27:26;1.52;;;1.20;;
21181;SDS011;10749;46.296;7.524;2022-10-16T16:29:53;1.77;;;1.10;;
21181;SDS011;10749;46.296;7.524;2022-10-16T16:32:20;1.80;;;1.10;;
21181;SDS011;10749;46.296;7.524;2022-10-16T16:34:45;2.45;;;1.58;;
21181;SDS011;10749;46.296;7.524;2022-10-16T16:37:10;2.90;;;1.23;;
21181;SDS011;10749;46.296;7.524;2022-10-16T16:39:36;2.58;;;1.23;;
21181;SDS011;10749;46.296;7.524;2022-10-16T16:42:01;1.95;;;1.40;;
21181;SDS011;10749;46.296;7.524;2022-10-16T16:44:27;3.15;;;1.80;;
21181;SDS011;10749;46.296;7.524;2022-10-16T16:46:53;2.35;;;1.50;;
21181;SDS011;10749;46.296;7.524;2022-10-16T16:49:19;2.83;;;1.45;;
21181;SDS011;10749;46.296;7.524;2022-10-16T16:51:45;3.30;;;1.50;;
21181;SDS011;10749;46.296;7.524;2022-10-16T16:54:10;3.25;;;1.38;;
21181;SDS011;10749;46.296;7.524;2022-10-16T16:56:37;2.13;;;1.17;;
21181;SDS011;10749;46.296;7.524;2022-10-16T16:59:03;3.53;;;1.40;;